sensor_id;sensor_type;location;lat;lon;timestamp;P1;durP1;ratioP1;P2;durP2;ratioP2
63926;SDS011;50103;47.960;21.712;2022-12-29T06:01:27;52.80;;;32.10;;
63926;SDS011;50103;47.960;21.712;2022-12-29T06:03:52;50.50;;;33.10;;
63926;SDS011;50103;47.960;21.712;2022-12-29T06:06:18;54.80;;;34.20;;
63926;SDS011;50103;47.960;21.712;2022-12-29T06:08:44;53.80;;;34.80;;
63926;SDS011;50103;47.960;21.712;2022-12-29T06:11:09;53.30;;;33.20;;
63926;SDS011;50103;47.960;21.712;2022-12-29T06:13:35;55.10;;;36.00;;
63926;SDS011;50103;47.960;21.712;2022-12-29T06:16:00;49.50;;;32.00;;
63926;SDS011;50103;47.960;21.712;2022-12-29T06:18:27;49.80;;;32.10;;
63926;SDS011;50103;47.960;21.712;2022-12-29T06:20:52;49.20;;;31.10;;
63926;SDS011;50103;47.960;21.712;2022-12-29T06:23:18;50.50;;;31.90;;
63926;SDS011;50103;47.960;21.712;2022-12-29T06:25:44;51.80;;;31.60;;
63926;SDS011;50103;47.960;21.712;2022-12-29T06:28:11;52.90;;;32.10;;
63926;SDS011;50103;47.960;21.712;2022-12-29T06:30:37;49.10;;;30.80;;
63926;SDS011;50103;47.960;21.712;2022-12-29T06:33:03;52.20;;;31.00;;
63926;SDS011;50103;47.960;21.712;2022-12-29T06:35:29;48.00;;;31.20;;
63926;SDS011;50103;47.960;21.712;2022-12-29T06:37:55;46.80;;;29.40;;
63926;SDS011;50103;47.960;21.712;2022-12-29T06:40:21;47.50;;;29.00;;
63926;SDS011;50103;47.960;21.712;2022-12-29T06:42:47;49.20;;;29.80;;
63926;SDS011;50103;47.960;21.712;2022-12-29T06:45:12;50.80;;;30.30;;
63926;SDS011;50103;47.960;21.712;2022-12-29T06:47:41;48.60;;;30.20;;
63926;SDS011;50103;47.960;21.712;2022-12-29T06:50:06;51.60;;;30.30;;
63926;SDS011;50103;47.960;21.712;2022-12-29T06:52:34;48.60;;;29.40;;
63926;SDS011;50103;47.960;21.712;2022-12-29T06:55:00;86.60;;;56.40;;
63926;SDS011;50103;47.960;21.712;2022-12-29T06:57:25;52.70;;;33.50;;
63926;SDS011;50103;47.960;21.712;2022-12-29T06:59:51;52.50;;;31.80;;
63926;SDS011;50103;47.960;21.712;2022-12-29T07:02:17;47.80;;;30.40;;
63926;SDS011;50103;47.960;21.712;2022-12-29T07:04:46;46.10;;;28.50;;
63926;SDS011;50103;47.960;21.712;2022-12-29T07:07:11;49.30;;;30.00;;
63926;SDS011;50103;47.960;21.712;2022-12-29T07:09:37;48.30;;;29.50;;
63926;SDS011;50103;47.960;21.712;2022-12-29T07:12:02;47.40;;;30.30;;
63926;SDS011;50103;47.960;21.712;2022-12-29T07:14:34;47.20;;;29.50;;
63926;SDS011;50103;47.960;21.712;2022-12-29T07:17:04;48.20;;;29.60;;
63926;SDS011;50103;47.960;21.712;2022-12-29T07:19:31;49.70;;;30.40;;
63926;SDS011;50103;47.960;21.712;2022-12-29T07:21:59;47.10;;;28.40;;
63926;SDS011;50103;47.960;21.712;2022-12-29T07:24:24;46.20;;;28.10;;
63926;SDS011;50103;47.960;21.712;2022-12-29T07:26:54;52.10;;;29.60;;
63926;SDS011;50103;47.960;21.712;2022-12-29T07:29:20;47.90;;;30.50;;
63926;SDS011;50103;47.960;21.712;2022-12-29T07:31:46;52.40;;;31.30;;
63926;SDS011;50103;47.960;21.712;2022-12-29T07:34:11;56.20;;;33.60;;
63926;SDS011;50103;47.960;21.712;2022-12-29T07:36:37;50.80;;;31.10;;
63926;SDS011;50103;47.960;21.712;2022-12-29T07:39:02;50.00;;;30.90;;
63926;SDS011;50103;47.960;21.712;2022-12-29T07:41:28;46.30;;;27.50;;
63926;SDS011;50103;47.960;21.712;2022-12-29T07:43:57;47.60;;;28.90;;
63926;SDS011;50103;47.960;21.712;2022-12-29T07:46:22;47.90;;;29.30;;
63926;SDS011;50103;47.960;21.712;2022-12-29T07:48:48;47.20;;;27.00;;
63926;SDS011;50103;47.960;21.712;2022-12-29T07:51:14;45.40;;;27.80;;
63926;SDS011;50103;47.960;21.712;2022-12-29T07:53:39;44.70;;;26.80;;
63926;SDS011;50103;47.960;21.712;2022-12-29T07:56:05;46.30;;;26.30;;
63926;SDS011;50103;47.960;21.712;2022-12-29T07:58:31;47.20;;;26.00;;
63926;SDS011;50103;47.960;21.712;2022-12-29T08:00:57;43.50;;;26.60;;
63926;SDS011;50103;47.960;21.712;2022-12-29T08:03:23;43.20;;;25.70;;
63926;SDS011;50103;47.960;21.712;2022-12-29T08:05:50;45.00;;;25.40;;
63926;SDS011;50103;47.960;21.712;2022-12-29T08:08:17;44.00;;;25.80;;
63926;SDS011;50103;47.960;21.712;2022-12-29T08:10:42;43.00;;;25.40;;
63926;SDS011;50103;47.960;21.712;2022-12-29T08:13:08;42.10;;;24.90;;
63926;SDS011;50103;47.960;21.712;2022-12-29T08:15:34;46.00;;;24.90;;
63926;SDS011;50103;47.960;21.712;2022-12-29T08:18:00;45.00;;;25.50;;
63926;SDS011;50103;47.960;21.712;2022-12-29T08:20:27;45.70;;;26.10;;
63926;SDS011;50103;47.960;21.712;2022-12-29T08:22:52;44.80;;;26.40;;
63926;SDS011;50103;47.960;21.712;2022-12-29T08:25:18;43.00;;;26.00;;
63926;SDS011;50103;47.960;21.712;2022-12-29T08:27:44;44.60;;;25.70;;
63926;SDS011;50103;47.960;21.712;2022-12-29T08:30:10;45.90;;;27.30;;
63926;SDS011;50103;47.960;21.712;2022-12-29T08:32:36;43.50;;;26.30;;
63926;SDS011;50103;47.960;21.712;2022-12-29T08:35:02;42.20;;;25.50;;
63926;SDS011;50103;47.960;21.712;2022-12-29T08:37:30;55.10;;;35.80;;
63926;SDS011;50103;47.960;21.712;2022-12-29T08:40:00;48.80;;;28.90;;
63926;SDS011;50103;47.960;21.712;2022-12-29T08:42:29;44.80;;;26.30;;
63926;SDS011;50103;47.960;21.712;2022-12-29T08:44:56;46.50;;;27.30;;
63926;SDS011;50103;47.960;21.712;2022-12-29T08:47:23;46.60;;;27.40;;
63926;SDS011;50103;47.960;21.712;2022-12-29T08:49:49;43.10;;;26.70;;
63926;SDS011;50103;47.960;21.712;2022-12-29T08:52:14;45.00;;;27.20;;
63926;SDS011;50103;47.960;21.712;2022-12-29T08:54:40;44.90;;;27.00;;
63926;SDS011;50103;47.960;21.712;2022-12-29T08:57:06;46.40;;;28.80;;
63926;SDS011;50103;47.960;21.712;2022-12-29T08:59:31;43.70;;;25.20;;
63926;SDS011;50103;47.960;21.712;2022-12-29T09:01:57;44.20;;;25.00;;
63926;SDS011;50103;47.960;21.712;2022-12-29T09:04:22;43.20;;;25.40;;
63926;SDS011;50103;47.960;21.712;2022-12-29T09:06:49;44.80;;;25.60;;
63926;SDS011;50103;47.960;21.712;2022-12-29T09:09:15;45.50;;;25.00;;
63926;SDS011;50103;47.960;21.712;2022-12-29T09:11:44;41.80;;;24.20;;
63926;SDS011;50103;47.960;21.712;2022-12-29T09:14:10;41.60;;;24.70;;
63926;SDS011;50103;47.960;21.712;2022-12-29T09:16:35;46.10;;;24.80;;
63926;SDS011;50103;47.960;21.712;2022-12-29T09:19:01;43.00;;;25.90;;
63926;SDS011;50103;47.960;21.712;2022-12-29T09:21:27;46.10;;;25.40;;
63926;SDS011;50103;47.960;21.712;2022-12-29T09:23:53;39.70;;;23.10;;
63926;SDS011;50103;47.960;21.712;2022-12-29T09:26:19;40.20;;;23.80;;
63926;SDS011;50103;47.960;21.712;2022-12-29T09:28:46;42.70;;;24.20;;
63926;SDS011;50103;47.960;21.712;2022-12-29T09:31:12;40.50;;;24.00;;
63926;SDS011;50103;47.960;21.712;2022-12-29T09:33:38;41.70;;;24.10;;
63926;SDS011;50103;47.960;21.712;2022-12-29T09:36:04;39.50;;;23.50;;
63926;SDS011;50103;47.960;21.712;2022-12-29T09:38:33;41.20;;;25.20;;
63926;SDS011;50103;47.960;21.712;2022-12-29T09:41:01;44.60;;;25.90;;
63926;SDS011;50103;47.960;21.712;2022-12-29T09:43:42;48.20;;;26.90;;
63926;SDS011;50103;47.960;21.712;2022-12-29T09:49:08;47.00;;;27.40;;
63926;SDS011;50103;47.960;21.712;2022-12-29T09:51:52;45.60;;;27.30;;
63926;SDS011;50103;47.960;21.712;2022-12-29T09:57:17;48.60;;;30.50;;
63926;SDS011;50103;47.960;21.712;2022-12-29T09:59:48;49.10;;;27.30;;
63926;SDS011;50103;47.960;21.712;2022-12-29T10:02:29;45.50;;;24.90;;
63926;SDS011;50103;47.960;21.712;2022-12-29T10:05:27;46.40;;;25.80;;
63926;SDS011;50103;47.960;21.712;2022-12-29T10:22:15;34.80;;;17.90;;
63926;SDS011;50103;47.960;21.712;2022-12-29T10:25:16;35.80;;;19.20;;
63926;SDS011;50103;47.960;21.712;2022-12-29T10:27:51;36.30;;;19.50;;
63926;SDS011;50103;47.960;21.712;2022-12-29T10:30:21;39.50;;;19.50;;
63926;SDS011;50103;47.960;21.712;2022-12-29T10:32:48;34.20;;;18.50;;
63926;SDS011;50103;47.960;21.712;2022-12-29T10:35:24;39.30;;;19.80;;
63926;SDS011;50103;47.960;21.712;2022-12-29T10:37:59;40.40;;;19.10;;
63926;SDS011;50103;47.960;21.712;2022-12-29T10:40:38;36.40;;;19.60;;
63926;SDS011;50103;47.960;21.712;2022-12-29T10:43:07;33.70;;;18.20;;
63926;SDS011;50103;47.960;21.712;2022-12-29T10:46:05;35.90;;;18.80;;
63926;SDS011;50103;47.960;21.712;2022-12-29T10:48:35;37.10;;;19.30;;
63926;SDS011;50103;47.960;21.712;2022-12-29T10:51:02;41.30;;;20.50;;
63926;SDS011;50103;47.960;21.712;2022-12-29T10:53:37;37.50;;;20.00;;
63926;SDS011;50103;47.960;21.712;2022-12-29T10:56:10;36.80;;;20.60;;
63926;SDS011;50103;47.960;21.712;2022-12-29T10:59:07;37.00;;;20.80;;
63926;SDS011;50103;47.960;21.712;2022-12-29T11:02:13;34.70;;;20.30;;
63926;SDS011;50103;47.960;21.712;2022-12-29T11:05:10;39.20;;;21.40;;
63926;SDS011;50103;47.960;21.712;2022-12-29T11:08:03;39.50;;;20.20;;
63926;SDS011;50103;47.960;21.712;2022-12-29T11:10:40;35.80;;;19.40;;
63926;SDS011;50103;47.960;21.712;2022-12-29T11:15:55;39.40;;;21.00;;
63926;SDS011;50103;47.960;21.712;2022-12-29T11:18:24;38.80;;;20.40;;
63926;SDS011;50103;47.960;21.712;2022-12-29T11:20:56;39.50;;;19.20;;
63926;SDS011;50103;47.960;21.712;2022-12-29T11:28:38;37.40;;;19.20;;
63926;SDS011;50103;47.960;21.712;2022-12-29T11:31:06;37.10;;;18.90;;
63926;SDS011;50103;47.960;21.712;2022-12-29T11:33:37;34.40;;;17.10;;
63926;SDS011;50103;47.960;21.712;2022-12-29T11:39:03;34.00;;;16.30;;
63926;SDS011;50103;47.960;21.712;2022-12-29T11:41:59;34.40;;;16.60;;
63926;SDS011;50103;47.960;21.712;2022-12-29T11:44:27;30.80;;;15.70;;
63926;SDS011;50103;47.960;21.712;2022-12-29T11:47:06;36.00;;;16.90;;
63926;SDS011;50103;47.960;21.712;2022-12-29T11:49:37;34.60;;;16.50;;
63926;SDS011;50103;47.960;21.712;2022-12-29T11:52:04;32.10;;;16.50;;
63926;SDS011;50103;47.960;21.712;2022-12-29T11:54:31;35.70;;;16.90;;
63926;SDS011;50103;47.960;21.712;2022-12-29T11:57:12;36.60;;;17.10;;
63926;SDS011;50103;47.960;21.712;2022-12-29T11:59:49;33.90;;;17.10;;
63926;SDS011;50103;47.960;21.712;2022-12-29T12:04:45;36.20;;;18.30;;
63926;SDS011;50103;47.960;21.712;2022-12-29T12:07:24;34.80;;;17.70;;
63926;SDS011;50103;47.960;21.712;2022-12-29T12:10:03;36.00;;;18.10;;
63926;SDS011;50103;47.960;21.712;2022-12-29T12:12:39;33.80;;;17.30;;
63926;SDS011;50103;47.960;21.712;2022-12-29T12:15:15;34.40;;;18.00;;
63926;SDS011;50103;47.960;21.712;2022-12-29T12:18:00;35.80;;;17.00;;
63926;SDS011;50103;47.960;21.712;2022-12-29T12:20:44;34.80;;;17.00;;
63926;SDS011;50103;47.960;21.712;2022-12-29T12:26:34;33.90;;;17.30;;
63926;SDS011;50103;47.960;21.712;2022-12-29T12:31:41;33.10;;;17.50;;
63926;SDS011;50103;47.960;21.712;2022-12-29T12:34:29;33.70;;;17.40;;
63926;SDS011;50103;47.960;21.712;2022-12-29T12:37:23;32.90;;;18.00;;
63926;SDS011;50103;47.960;21.712;2022-12-29T12:40:09;34.80;;;18.20;;
63926;SDS011;50103;47.960;21.712;2022-12-29T12:42:53;35.90;;;17.00;;
63926;SDS011;50103;47.960;21.712;2022-12-29T13:00:03;38.30;;;18.70;;
63926;SDS011;50103;47.960;21.712;2022-12-29T13:03:10;36.10;;;18.10;;
63926;SDS011;50103;47.960;21.712;2022-12-29T13:17:08;41.30;;;24.00;;
63926;SDS011;50103;47.960;21.712;2022-12-29T13:25:30;42.40;;;24.90;;
63926;SDS011;50103;47.960;21.712;2022-12-29T13:30:33;43.90;;;24.60;;
63926;SDS011;50103;47.960;21.712;2022-12-29T13:33:11;41.40;;;24.30;;
63926;SDS011;50103;47.960;21.712;2022-12-29T13:41:01;40.50;;;24.70;;
63926;SDS011;50103;47.960;21.712;2022-12-29T13:43:39;44.50;;;27.30;;
63926;SDS011;50103;47.960;21.712;2022-12-29T13:46:09;50.90;;;31.00;;
63926;SDS011;50103;47.960;21.712;2022-12-29T13:51:09;48.90;;;28.70;;
63926;SDS011;50103;47.960;21.712;2022-12-29T13:56:16;48.20;;;28.70;;
63926;SDS011;50103;47.960;21.712;2022-12-29T14:01:34;46.50;;;29.30;;
63926;SDS011;50103;47.960;21.712;2022-12-29T14:04:13;47.30;;;31.10;;
63926;SDS011;50103;47.960;21.712;2022-12-29T14:06:45;48.10;;;31.60;;
63926;SDS011;50103;47.960;21.712;2022-12-29T14:09:30;50.00;;;30.70;;
63926;SDS011;50103;47.960;21.712;2022-12-29T14:12:20;50.20;;;32.80;;
63926;SDS011;50103;47.960;21.712;2022-12-29T14:17:35;52.50;;;33.60;;
63926;SDS011;50103;47.960;21.712;2022-12-29T14:20:02;52.00;;;34.50;;
63926;SDS011;50103;47.960;21.712;2022-12-29T14:22:32;50.20;;;33.10;;
63926;SDS011;50103;47.960;21.712;2022-12-29T14:24:58;54.30;;;34.30;;
63926;SDS011;50103;47.960;21.712;2022-12-29T14:29:56;55.70;;;37.40;;
63926;SDS011;50103;47.960;21.712;2022-12-29T14:34:54;53.00;;;35.70;;
63926;SDS011;50103;47.960;21.712;2022-12-29T14:37:32;55.20;;;37.10;;
63926;SDS011;50103;47.960;21.712;2022-12-29T14:42:53;55.00;;;37.00;;
63926;SDS011;50103;47.960;21.712;2022-12-29T14:47:50;51.40;;;32.50;;
63926;SDS011;50103;47.960;21.712;2022-12-29T14:50:18;50.00;;;31.10;;
63926;SDS011;50103;47.960;21.712;2022-12-29T14:58:23;48.10;;;29.70;;
63926;SDS011;50103;47.960;21.712;2022-12-29T15:00:53;48.30;;;31.40;;
63926;SDS011;50103;47.960;21.712;2022-12-29T15:03:23;45.20;;;28.00;;
63926;SDS011;50103;47.960;21.712;2022-12-29T15:06:03;46.90;;;28.60;;
63926;SDS011;50103;47.960;21.712;2022-12-29T15:08:33;48.90;;;29.70;;
63926;SDS011;50103;47.960;21.712;2022-12-29T15:11:09;46.60;;;28.60;;
63926;SDS011;50103;47.960;21.712;2022-12-29T15:13:40;44.10;;;28.10;;
63926;SDS011;50103;47.960;21.712;2022-12-29T15:18:57;47.90;;;29.10;;
63926;SDS011;50103;47.960;21.712;2022-12-29T15:21:24;49.30;;;31.30;;
63926;SDS011;50103;47.960;21.712;2022-12-29T15:23:58;51.40;;;29.60;;
63926;SDS011;50103;47.960;21.712;2022-12-29T15:26:36;44.60;;;27.40;;
63926;SDS011;50103;47.960;21.712;2022-12-29T15:32:39;47.90;;;29.10;;
63926;SDS011;50103;47.960;21.712;2022-12-29T15:35:42;46.10;;;28.80;;
63926;SDS011;50103;47.960;21.712;2022-12-29T15:38:21;44.90;;;27.00;;
63926;SDS011;50103;47.960;21.712;2022-12-29T15:40:54;46.80;;;28.10;;
63926;SDS011;50103;47.960;21.712;2022-12-29T15:45:54;49.30;;;31.40;;
63926;SDS011;50103;47.960;21.712;2022-12-29T15:48:21;50.00;;;32.00;;
63926;SDS011;50103;47.960;21.712;2022-12-29T15:50:52;50.90;;;34.50;;
63926;SDS011;50103;47.960;21.712;2022-12-29T15:53:21;52.10;;;34.10;;
63926;SDS011;50103;47.960;21.712;2022-12-29T15:56:01;53.40;;;34.80;;
63926;SDS011;50103;47.960;21.712;2022-12-29T15:58:38;60.80;;;37.80;;
63926;SDS011;50103;47.960;21.712;2022-12-29T16:03:54;58.30;;;38.10;;
63926;SDS011;50103;47.960;21.712;2022-12-29T16:08:55;62.30;;;39.10;;
63926;SDS011;50103;47.960;21.712;2022-12-29T16:11:37;53.90;;;35.70;;
63926;SDS011;50103;47.960;21.712;2022-12-29T16:14:17;52.60;;;34.20;;
63926;SDS011;50103;47.960;21.712;2022-12-29T16:16:47;53.30;;;32.50;;
63926;SDS011;50103;47.960;21.712;2022-12-29T16:21:46;51.00;;;31.50;;
63926;SDS011;50103;47.960;21.712;2022-12-29T16:24:14;50.10;;;31.40;;
63926;SDS011;50103;47.960;21.712;2022-12-29T16:26:50;49.30;;;30.80;;
63926;SDS011;50103;47.960;21.712;2022-12-29T16:31:55;48.70;;;30.90;;
63926;SDS011;50103;47.960;21.712;2022-12-29T16:34:32;51.40;;;32.20;;
63926;SDS011;50103;47.960;21.712;2022-12-29T16:39:54;49.40;;;31.10;;
63926;SDS011;50103;47.960;21.712;2022-12-29T16:50:38;54.30;;;36.30;;
63926;SDS011;50103;47.960;21.712;2022-12-29T16:53:19;51.50;;;33.90;;
63926;SDS011;50103;47.960;21.712;2022-12-29T16:56:23;58.00;;;37.80;;
63926;SDS011;50103;47.960;21.712;2022-12-29T17:01:27;55.00;;;36.90;;
63926;SDS011;50103;47.960;21.712;2022-12-29T17:03:53;54.60;;;35.00;;
63926;SDS011;50103;47.960;21.712;2022-12-29T17:06:23;54.10;;;34.90;;
63926;SDS011;50103;47.960;21.712;2022-12-29T17:08:49;54.40;;;33.40;;
63926;SDS011;50103;47.960;21.712;2022-12-29T17:11:32;53.80;;;34.80;;
63926;SDS011;50103;47.960;21.712;2022-12-29T17:14:52;46.50;;;30.30;;
63926;SDS011;50103;47.960;21.712;2022-12-29T17:17:41;49.60;;;32.60;;
63926;SDS011;50103;47.960;21.712;2022-12-29T17:20:28;50.30;;;32.50;;
63926;SDS011;50103;47.960;21.712;2022-12-29T17:23:14;50.20;;;32.80;;
63926;SDS011;50103;47.960;21.712;2022-12-29T17:25:45;52.70;;;33.30;;
63926;SDS011;50103;47.960;21.712;2022-12-29T17:28:24;54.80;;;35.00;;
63926;SDS011;50103;47.960;21.712;2022-12-29T17:30:56;55.30;;;36.10;;
63926;SDS011;50103;47.960;21.712;2022-12-29T17:33:28;60.30;;;39.80;;
63926;SDS011;50103;47.960;21.712;2022-12-29T17:35:59;64.60;;;42.60;;
63926;SDS011;50103;47.960;21.712;2022-12-29T17:38:27;61.40;;;39.90;;
63926;SDS011;50103;47.960;21.712;2022-12-29T17:40:57;55.50;;;37.50;;
63926;SDS011;50103;47.960;21.712;2022-12-29T17:43:23;57.40;;;38.00;;
63926;SDS011;50103;47.960;21.712;2022-12-29T17:45:53;57.00;;;37.70;;
63926;SDS011;50103;47.960;21.712;2022-12-29T17:48:21;58.50;;;38.80;;
63926;SDS011;50103;47.960;21.712;2022-12-29T17:50:48;60.60;;;38.60;;
63926;SDS011;50103;47.960;21.712;2022-12-29T17:53:21;57.60;;;38.20;;
63926;SDS011;50103;47.960;21.712;2022-12-29T17:55:48;59.50;;;39.10;;
63926;SDS011;50103;47.960;21.712;2022-12-29T17:58:21;59.00;;;39.60;;
63926;SDS011;50103;47.960;21.712;2022-12-29T18:00:56;60.80;;;40.90;;
63926;SDS011;50103;47.960;21.712;2022-12-29T18:03:25;58.80;;;37.90;;
63926;SDS011;50103;47.960;21.712;2022-12-29T18:05:56;59.40;;;37.10;;
63926;SDS011;50103;47.960;21.712;2022-12-29T18:08:21;57.30;;;38.40;;
63926;SDS011;50103;47.960;21.712;2022-12-29T18:10:47;57.60;;;38.40;;
63926;SDS011;50103;47.960;21.712;2022-12-29T18:15:49;61.90;;;40.70;;
63926;SDS011;50103;47.960;21.712;2022-12-29T18:18:17;60.70;;;40.00;;
63926;SDS011;50103;47.960;21.712;2022-12-29T18:20:48;64.20;;;42.60;;
63926;SDS011;50103;47.960;21.712;2022-12-29T18:23:37;64.50;;;41.70;;
63926;SDS011;50103;47.960;21.712;2022-12-29T18:26:26;61.50;;;43.00;;
63926;SDS011;50103;47.960;21.712;2022-12-29T18:28:56;61.50;;;42.70;;
63926;SDS011;50103;47.960;21.712;2022-12-29T18:31:24;60.70;;;42.00;;
63926;SDS011;50103;47.960;21.712;2022-12-29T18:33:51;61.20;;;42.10;;
63926;SDS011;50103;47.960;21.712;2022-12-29T18:36:19;60.10;;;42.40;;
63926;SDS011;50103;47.960;21.712;2022-12-29T18:38:45;70.20;;;46.50;;
63926;SDS011;50103;47.960;21.712;2022-12-29T18:41:15;64.60;;;46.20;;
63926;SDS011;50103;47.960;21.712;2022-12-29T18:43:43;65.60;;;45.70;;
63926;SDS011;50103;47.960;21.712;2022-12-29T18:46:09;68.40;;;48.00;;
63926;SDS011;50103;47.960;21.712;2022-12-29T18:48:36;68.90;;;46.80;;
63926;SDS011;50103;47.960;21.712;2022-12-29T18:51:02;69.60;;;48.40;;
63926;SDS011;50103;47.960;21.712;2022-12-29T18:53:28;69.60;;;47.60;;
63926;SDS011;50103;47.960;21.712;2022-12-29T18:55:54;64.60;;;45.70;;
63926;SDS011;50103;47.960;21.712;2022-12-29T18:58:21;70.30;;;46.80;;
63926;SDS011;50103;47.960;21.712;2022-12-29T19:00:49;70.00;;;47.00;;
63926;SDS011;50103;47.960;21.712;2022-12-29T19:03:18;63.10;;;42.30;;
63926;SDS011;50103;47.960;21.712;2022-12-29T19:05:44;68.00;;;46.80;;
63926;SDS011;50103;47.960;21.712;2022-12-29T19:08:11;63.60;;;43.80;;
63926;SDS011;50103;47.960;21.712;2022-12-29T19:10:37;65.60;;;45.30;;
63926;SDS011;50103;47.960;21.712;2022-12-29T19:13:04;68.00;;;45.70;;
63926;SDS011;50103;47.960;21.712;2022-12-29T19:15:31;66.10;;;44.70;;
63926;SDS011;50103;47.960;21.712;2022-12-29T19:18:00;98.90;;;73.60;;
63926;SDS011;50103;47.960;21.712;2022-12-29T19:20:29;93.50;;;68.00;;
63926;SDS011;50103;47.960;21.712;2022-12-29T19:23:00;101.50;;;74.70;;
63926;SDS011;50103;47.960;21.712;2022-12-29T19:25:29;102.10;;;77.50;;
63926;SDS011;50103;47.960;21.712;2022-12-29T19:27:56;101.90;;;76.00;;
63926;SDS011;50103;47.960;21.712;2022-12-29T19:30:22;95.50;;;74.20;;
63926;SDS011;50103;47.960;21.712;2022-12-29T19:32:51;97.60;;;73.00;;
63926;SDS011;50103;47.960;21.712;2022-12-29T19:35:19;97.60;;;75.10;;
63926;SDS011;50103;47.960;21.712;2022-12-29T19:37:46;101.40;;;75.90;;
63926;SDS011;50103;47.960;21.712;2022-12-29T19:40:13;96.90;;;72.60;;
63926;SDS011;50103;47.960;21.712;2022-12-29T19:42:40;95.50;;;72.90;;
63926;SDS011;50103;47.960;21.712;2022-12-29T19:45:06;97.50;;;71.70;;
63926;SDS011;50103;47.960;21.712;2022-12-29T19:47:33;97.30;;;71.00;;
63926;SDS011;50103;47.960;21.712;2022-12-29T19:50:00;95.30;;;72.20;;
63926;SDS011;50103;47.960;21.712;2022-12-29T19:52:27;100.70;;;76.20;;
63926;SDS011;50103;47.960;21.712;2022-12-29T19:54:53;99.60;;;76.80;;
63926;SDS011;50103;47.960;21.712;2022-12-29T19:57:19;102.10;;;76.50;;
63926;SDS011;50103;47.960;21.712;2022-12-29T19:59:45;90.20;;;66.10;;
